sensor_id;sensor_type;location;lat;lon;timestamp;P1;durP1;ratioP1;P2;durP2;ratioP2
3755;SDS011;1893;52.526;13.360;2022-11-06T00:01:12;12.30;;;6.70;;
3755;SDS011;1893;52.526;13.360;2022-11-06T00:03:39;9.87;;;5.80;;
3755;SDS011;1893;52.526;13.360;2022-11-06T00:06:06;12.70;;;6.00;;
3755;SDS011;1893;52.526;13.360;2022-11-06T00:08:57;10.90;;;5.60;;
3755;SDS011;1893;52.526;13.360;2022-11-06T00:11:24;9.80;;;5.73;;
3755;SDS011;1893;52.526;13.360;2022-11-06T00:13:49;14.00;;;5.87;;
3755;SDS011;1893;52.526;13.360;2022-11-06T00:16:16;20.07;;;7.07;;
3755;SDS011;1893;52.526;13.360;2022-11-06T00:18:43;13.33;;;6.40;;
3755;SDS011;1893;52.526;13.360;2022-11-06T00:21:10;12.90;;;6.90;;
3755;SDS011;1893;52.526;13.360;2022-11-06T00:23:38;16.10;;;6.70;;
3755;SDS011;1893;52.526;13.360;2022-11-06T00:26:08;17.63;;;7.53;;
3755;SDS011;1893;52.526;13.360;2022-11-06T00:28:35;11.03;;;6.80;;
3755;SDS011;1893;52.526;13.360;2022-11-06T00:31:08;10.73;;;7.00;;
3755;SDS011;1893;52.526;13.360;2022-11-06T00:33:35;14.83;;;6.77;;
3755;SDS011;1893;52.526;13.360;2022-11-06T00:36:05;13.10;;;6.40;;
3755;SDS011;1893;52.526;13.360;2022-11-06T00:38:32;11.27;;;6.87;;
3755;SDS011;1893;52.526;13.360;2022-11-06T00:41:01;17.73;;;7.00;;
3755;SDS011;1893;52.526;13.360;2022-11-06T00:43:28;13.33;;;7.43;;
3755;SDS011;1893;52.526;13.360;2022-11-06T00:45:59;13.37;;;7.03;;
3755;SDS011;1893;52.526;13.360;2022-11-06T00:48:29;14.87;;;7.63;;
3755;SDS011;1893;52.526;13.360;2022-11-06T00:50:54;18.20;;;8.00;;
3755;SDS011;1893;52.526;13.360;2022-11-06T00:53:29;11.80;;;7.83;;
3755;SDS011;1893;52.526;13.360;2022-11-06T00:56:01;13.97;;;6.60;;
3755;SDS011;1893;52.526;13.360;2022-11-06T00:58:28;18.80;;;7.80;;
3755;SDS011;1893;52.526;13.360;2022-11-06T01:00:54;10.00;;;6.90;;
3755;SDS011;1893;52.526;13.360;2022-11-06T01:03:19;15.30;;;7.90;;
3755;SDS011;1893;52.526;13.360;2022-11-06T01:05:45;11.63;;;6.83;;
3755;SDS011;1893;52.526;13.360;2022-11-06T01:08:10;15.60;;;7.37;;
3755;SDS011;1893;52.526;13.360;2022-11-06T01:10:36;14.40;;;7.57;;
3755;SDS011;1893;52.526;13.360;2022-11-06T01:13:01;19.77;;;7.50;;
3755;SDS011;1893;52.526;13.360;2022-11-06T01:15:27;10.47;;;7.30;;
3755;SDS011;1893;52.526;13.360;2022-11-06T01:17:52;16.00;;;7.67;;
3755;SDS011;1893;52.526;13.360;2022-11-06T01:20:18;10.60;;;7.07;;
3755;SDS011;1893;52.526;13.360;2022-11-06T01:22:43;16.57;;;8.37;;
3755;SDS011;1893;52.526;13.360;2022-11-06T01:25:09;14.67;;;7.63;;
3755;SDS011;1893;52.526;13.360;2022-11-06T01:27:34;13.20;;;7.90;;
3755;SDS011;1893;52.526;13.360;2022-11-06T01:30:00;14.57;;;7.87;;
3755;SDS011;1893;52.526;13.360;2022-11-06T01:32:25;15.50;;;8.77;;
3755;SDS011;1893;52.526;13.360;2022-11-06T01:34:51;17.00;;;7.97;;
3755;SDS011;1893;52.526;13.360;2022-11-06T01:37:16;13.63;;;8.33;;
3755;SDS011;1893;52.526;13.360;2022-11-06T01:39:42;15.10;;;7.80;;
3755;SDS011;1893;52.526;13.360;2022-11-06T01:42:11;16.77;;;8.00;;
3755;SDS011;1893;52.526;13.360;2022-11-06T01:47:20;12.30;;;8.10;;
3755;SDS011;1893;52.526;13.360;2022-11-06T01:49:59;13.17;;;6.87;;
3755;SDS011;1893;52.526;13.360;2022-11-06T01:52:30;17.37;;;8.10;;
3755;SDS011;1893;52.526;13.360;2022-11-06T01:55:01;14.40;;;8.00;;
3755;SDS011;1893;52.526;13.360;2022-11-06T01:57:40;14.40;;;5.93;;
3755;SDS011;1893;52.526;13.360;2022-11-06T02:00:06;12.70;;;7.67;;
3755;SDS011;1893;52.526;13.360;2022-11-06T02:02:33;13.93;;;6.77;;
3755;SDS011;1893;52.526;13.360;2022-11-06T02:05:00;14.70;;;8.23;;
3755;SDS011;1893;52.526;13.360;2022-11-06T02:07:25;11.80;;;7.23;;
3755;SDS011;1893;52.526;13.360;2022-11-06T02:09:51;13.00;;;7.23;;
3755;SDS011;1893;52.526;13.360;2022-11-06T02:12:38;12.77;;;8.00;;
3755;SDS011;1893;52.526;13.360;2022-11-06T02:15:10;17.10;;;9.40;;
3755;SDS011;1893;52.526;13.360;2022-11-06T02:20:29;15.43;;;8.50;;
3755;SDS011;1893;52.526;13.360;2022-11-06T02:23:06;13.13;;;8.60;;
3755;SDS011;1893;52.526;13.360;2022-11-06T02:25:43;13.47;;;7.87;;
3755;SDS011;1893;52.526;13.360;2022-11-06T02:30:50;14.73;;;6.63;;
3755;SDS011;1893;52.526;13.360;2022-11-06T02:33:18;13.47;;;7.77;;
3755;SDS011;1893;52.526;13.360;2022-11-06T02:36:10;12.10;;;8.00;;
3755;SDS011;1893;52.526;13.360;2022-11-06T02:38:42;17.50;;;9.67;;
3755;SDS011;1893;52.526;13.360;2022-11-06T02:41:12;18.53;;;9.37;;
3755;SDS011;1893;52.526;13.360;2022-11-06T02:43:43;12.27;;;8.43;;
3755;SDS011;1893;52.526;13.360;2022-11-06T02:46:55;12.33;;;7.50;;
3755;SDS011;1893;52.526;13.360;2022-11-06T02:49:13;12.93;;;7.30;;
3755;SDS011;1893;52.526;13.360;2022-11-06T02:51:48;15.63;;;8.77;;
3755;SDS011;1893;52.526;13.360;2022-11-06T02:54:18;14.90;;;8.40;;
3755;SDS011;1893;52.526;13.360;2022-11-06T02:56:45;13.33;;;8.43;;
3755;SDS011;1893;52.526;13.360;2022-11-06T03:01:48;15.57;;;8.80;;
3755;SDS011;1893;52.526;13.360;2022-11-06T03:04:17;17.47;;;7.97;;
3755;SDS011;1893;52.526;13.360;2022-11-06T03:06:52;15.00;;;8.93;;
3755;SDS011;1893;52.526;13.360;2022-11-06T03:09:32;16.70;;;8.10;;
3755;SDS011;1893;52.526;13.360;2022-11-06T03:17:39;11.70;;;7.63;;
3755;SDS011;1893;52.526;13.360;2022-11-06T03:20:15;14.57;;;7.80;;
3755;SDS011;1893;52.526;13.360;2022-11-06T03:23:07;13.57;;;8.50;;
3755;SDS011;1893;52.526;13.360;2022-11-06T03:25:50;19.00;;;8.83;;
3755;SDS011;1893;52.526;13.360;2022-11-06T03:30:57;12.83;;;8.30;;
3755;SDS011;1893;52.526;13.360;2022-11-06T03:33:31;16.83;;;8.80;;
3755;SDS011;1893;52.526;13.360;2022-11-06T03:36:24;17.60;;;8.00;;
3755;SDS011;1893;52.526;13.360;2022-11-06T03:38:51;14.53;;;8.13;;
3755;SDS011;1893;52.526;13.360;2022-11-06T03:41:24;18.57;;;8.90;;
3755;SDS011;1893;52.526;13.360;2022-11-06T03:43:55;14.00;;;9.30;;
3755;SDS011;1893;52.526;13.360;2022-11-06T03:46:23;17.40;;;8.83;;
3755;SDS011;1893;52.526;13.360;2022-11-06T03:48:57;21.77;;;8.60;;
3755;SDS011;1893;52.526;13.360;2022-11-06T03:51:29;15.37;;;8.70;;
3755;SDS011;1893;52.526;13.360;2022-11-06T03:57:21;17.87;;;8.80;;
3755;SDS011;1893;52.526;13.360;2022-11-06T03:59:52;19.50;;;9.47;;
3755;SDS011;1893;52.526;13.360;2022-11-06T04:02:21;15.00;;;8.30;;
3755;SDS011;1893;52.526;13.360;2022-11-06T04:04:54;12.10;;;7.93;;
3755;SDS011;1893;52.526;13.360;2022-11-06T04:07:24;13.60;;;8.43;;
3755;SDS011;1893;52.526;13.360;2022-11-06T04:09:59;18.73;;;9.00;;
3755;SDS011;1893;52.526;13.360;2022-11-06T04:12:45;15.53;;;9.07;;
3755;SDS011;1893;52.526;13.360;2022-11-06T04:15:31;14.63;;;8.90;;
3755;SDS011;1893;52.526;13.360;2022-11-06T04:18:10;19.60;;;8.93;;
3755;SDS011;1893;52.526;13.360;2022-11-06T04:20:43;15.97;;;9.20;;
3755;SDS011;1893;52.526;13.360;2022-11-06T04:23:45;18.83;;;9.10;;
3755;SDS011;1893;52.526;13.360;2022-11-06T04:26:41;12.13;;;8.07;;
3755;SDS011;1893;52.526;13.360;2022-11-06T04:32:28;15.73;;;8.40;;
3755;SDS011;1893;52.526;13.360;2022-11-06T04:35:03;11.87;;;8.83;;
3755;SDS011;1893;52.526;13.360;2022-11-06T04:37:47;16.77;;;8.90;;
3755;SDS011;1893;52.526;13.360;2022-11-06T04:40:25;14.10;;;8.90;;
3755;SDS011;1893;52.526;13.360;2022-11-06T04:43:13;20.57;;;10.70;;
3755;SDS011;1893;52.526;13.360;2022-11-06T04:45:46;14.20;;;9.33;;
3755;SDS011;1893;52.526;13.360;2022-11-06T04:48:15;16.83;;;9.40;;
3755;SDS011;1893;52.526;13.360;2022-11-06T04:50:43;18.63;;;8.87;;
3755;SDS011;1893;52.526;13.360;2022-11-06T04:53:14;14.37;;;8.53;;
3755;SDS011;1893;52.526;13.360;2022-11-06T04:55:45;16.23;;;8.60;;
3755;SDS011;1893;52.526;13.360;2022-11-06T04:58:12;17.93;;;9.00;;
3755;SDS011;1893;52.526;13.360;2022-11-06T05:00:38;14.07;;;9.03;;
3755;SDS011;1893;52.526;13.360;2022-11-06T05:03:08;13.60;;;8.43;;
3755;SDS011;1893;52.526;13.360;2022-11-06T05:05:34;21.73;;;9.13;;
3755;SDS011;1893;52.526;13.360;2022-11-06T05:07:59;13.90;;;9.40;;
3755;SDS011;1893;52.526;13.360;2022-11-06T05:10:25;16.50;;;9.00;;
3755;SDS011;1893;52.526;13.360;2022-11-06T05:12:50;13.97;;;9.17;;
3755;SDS011;1893;52.526;13.360;2022-11-06T05:15:16;14.93;;;8.97;;
3755;SDS011;1893;52.526;13.360;2022-11-06T05:17:41;15.70;;;9.10;;
3755;SDS011;1893;52.526;13.360;2022-11-06T05:20:07;16.33;;;8.20;;
3755;SDS011;1893;52.526;13.360;2022-11-06T05:22:32;15.00;;;8.80;;
3755;SDS011;1893;52.526;13.360;2022-11-06T05:25:16;17.10;;;9.70;;
3755;SDS011;1893;52.526;13.360;2022-11-06T05:27:42;15.40;;;8.90;;
3755;SDS011;1893;52.526;13.360;2022-11-06T05:30:07;11.43;;;8.20;;
3755;SDS011;1893;52.526;13.360;2022-11-06T05:32:33;20.10;;;10.33;;
3755;SDS011;1893;52.526;13.360;2022-11-06T05:34:59;20.53;;;9.30;;
3755;SDS011;1893;52.526;13.360;2022-11-06T05:37:25;12.83;;;8.70;;
3755;SDS011;1893;52.526;13.360;2022-11-06T05:39:51;17.83;;;9.03;;
3755;SDS011;1893;52.526;13.360;2022-11-06T05:42:17;19.57;;;8.70;;
3755;SDS011;1893;52.526;13.360;2022-11-06T05:44:42;12.67;;;8.10;;
3755;SDS011;1893;52.526;13.360;2022-11-06T05:47:08;14.40;;;9.27;;
3755;SDS011;1893;52.526;13.360;2022-11-06T05:49:33;17.53;;;9.10;;
3755;SDS011;1893;52.526;13.360;2022-11-06T05:51:59;17.60;;;9.53;;
3755;SDS011;1893;52.526;13.360;2022-11-06T05:54:24;20.73;;;9.03;;
3755;SDS011;1893;52.526;13.360;2022-11-06T05:56:50;17.70;;;8.90;;
3755;SDS011;1893;52.526;13.360;2022-11-06T05:59:15;18.70;;;10.00;;
3755;SDS011;1893;52.526;13.360;2022-11-06T06:01:41;16.30;;;9.60;;
3755;SDS011;1893;52.526;13.360;2022-11-06T06:04:06;20.37;;;9.60;;
3755;SDS011;1893;52.526;13.360;2022-11-06T06:06:32;14.60;;;8.80;;
3755;SDS011;1893;52.526;13.360;2022-11-06T06:08:58;13.57;;;8.87;;
3755;SDS011;1893;52.526;13.360;2022-11-06T06:11:23;21.57;;;10.80;;
3755;SDS011;1893;52.526;13.360;2022-11-06T06:13:49;17.60;;;9.67;;
3755;SDS011;1893;52.526;13.360;2022-11-06T06:16:14;16.07;;;8.47;;
3755;SDS011;1893;52.526;13.360;2022-11-06T06:18:40;16.27;;;9.30;;
3755;SDS011;1893;52.526;13.360;2022-11-06T06:21:06;17.43;;;8.80;;
3755;SDS011;1893;52.526;13.360;2022-11-06T06:23:31;21.37;;;9.23;;
3755;SDS011;1893;52.526;13.360;2022-11-06T06:25:57;14.23;;;9.23;;
3755;SDS011;1893;52.526;13.360;2022-11-06T06:28:22;15.13;;;8.90;;
3755;SDS011;1893;52.526;13.360;2022-11-06T06:30:48;14.90;;;9.33;;
3755;SDS011;1893;52.526;13.360;2022-11-06T06:33:13;14.63;;;8.43;;
3755;SDS011;1893;52.526;13.360;2022-11-06T06:35:39;17.03;;;9.73;;
3755;SDS011;1893;52.526;13.360;2022-11-06T06:38:04;25.73;;;10.33;;
3755;SDS011;1893;52.526;13.360;2022-11-06T06:40:30;14.07;;;8.43;;
3755;SDS011;1893;52.526;13.360;2022-11-06T06:42:56;16.80;;;9.37;;
3755;SDS011;1893;52.526;13.360;2022-11-06T06:45:21;16.23;;;8.97;;
3755;SDS011;1893;52.526;13.360;2022-11-06T06:47:47;14.97;;;8.43;;
3755;SDS011;1893;52.526;13.360;2022-11-06T06:50:13;14.27;;;9.33;;
3755;SDS011;1893;52.526;13.360;2022-11-06T06:52:38;17.10;;;9.57;;
3755;SDS011;1893;52.526;13.360;2022-11-06T06:55:04;14.70;;;10.00;;
3755;SDS011;1893;52.526;13.360;2022-11-06T06:57:30;14.53;;;8.90;;
3755;SDS011;1893;52.526;13.360;2022-11-06T06:59:55;21.17;;;9.70;;
3755;SDS011;1893;52.526;13.360;2022-11-06T07:02:21;16.20;;;9.70;;
3755;SDS011;1893;52.526;13.360;2022-11-06T07:04:47;15.37;;;8.63;;
3755;SDS011;1893;52.526;13.360;2022-11-06T07:07:12;25.50;;;10.07;;
3755;SDS011;1893;52.526;13.360;2022-11-06T07:09:38;15.37;;;9.50;;
3755;SDS011;1893;52.526;13.360;2022-11-06T07:12:03;20.97;;;10.53;;
3755;SDS011;1893;52.526;13.360;2022-11-06T07:14:29;17.90;;;9.33;;
3755;SDS011;1893;52.526;13.360;2022-11-06T07:16:55;16.60;;;9.00;;
3755;SDS011;1893;52.526;13.360;2022-11-06T07:19:20;13.13;;;8.90;;
3755;SDS011;1893;52.526;13.360;2022-11-06T07:21:46;14.40;;;7.93;;
3755;SDS011;1893;52.526;13.360;2022-11-06T07:24:14;15.80;;;8.83;;
3755;SDS011;1893;52.526;13.360;2022-11-06T07:26:42;13.20;;;9.30;;
3755;SDS011;1893;52.526;13.360;2022-11-06T07:29:07;14.57;;;8.47;;
3755;SDS011;1893;52.526;13.360;2022-11-06T07:31:33;10.73;;;8.23;;
3755;SDS011;1893;52.526;13.360;2022-11-06T07:33:58;12.50;;;7.70;;
3755;SDS011;1893;52.526;13.360;2022-11-06T07:36:24;15.70;;;9.10;;
3755;SDS011;1893;52.526;13.360;2022-11-06T07:38:49;12.10;;;8.13;;
3755;SDS011;1893;52.526;13.360;2022-11-06T07:41:15;14.47;;;8.20;;
3755;SDS011;1893;52.526;13.360;2022-11-06T07:43:41;19.03;;;8.17;;
3755;SDS011;1893;52.526;13.360;2022-11-06T07:46:09;11.00;;;8.23;;
3755;SDS011;1893;52.526;13.360;2022-11-06T07:48:35;12.07;;;8.10;;
3755;SDS011;1893;52.526;13.360;2022-11-06T07:51:02;15.60;;;8.50;;
3755;SDS011;1893;52.526;13.360;2022-11-06T07:53:29;12.90;;;8.73;;
3755;SDS011;1893;52.526;13.360;2022-11-06T07:55:55;13.20;;;9.27;;
3755;SDS011;1893;52.526;13.360;2022-11-06T07:58:21;15.73;;;9.13;;
3755;SDS011;1893;52.526;13.360;2022-11-06T08:00:48;15.73;;;9.33;;
3755;SDS011;1893;52.526;13.360;2022-11-06T08:03:15;15.83;;;9.37;;
3755;SDS011;1893;52.526;13.360;2022-11-06T08:05:41;13.37;;;9.23;;
3755;SDS011;1893;52.526;13.360;2022-11-06T08:08:07;17.17;;;9.17;;
3755;SDS011;1893;52.526;13.360;2022-11-06T08:10:33;16.23;;;8.60;;
3755;SDS011;1893;52.526;13.360;2022-11-06T08:13:01;15.97;;;7.87;;
3755;SDS011;1893;52.526;13.360;2022-11-06T08:15:27;13.80;;;9.33;;
3755;SDS011;1893;52.526;13.360;2022-11-06T08:17:53;10.43;;;7.90;;
3755;SDS011;1893;52.526;13.360;2022-11-06T08:20:18;17.73;;;9.40;;
3755;SDS011;1893;52.526;13.360;2022-11-06T08:22:44;13.20;;;8.37;;
3755;SDS011;1893;52.526;13.360;2022-11-06T08:25:09;15.07;;;7.50;;
3755;SDS011;1893;52.526;13.360;2022-11-06T08:27:35;15.03;;;8.33;;
3755;SDS011;1893;52.526;13.360;2022-11-06T08:30:02;11.50;;;7.33;;
3755;SDS011;1893;52.526;13.360;2022-11-06T08:32:28;13.30;;;9.37;;
3755;SDS011;1893;52.526;13.360;2022-11-06T08:34:54;11.70;;;7.10;;
3755;SDS011;1893;52.526;13.360;2022-11-06T08:37:19;13.47;;;7.67;;
3755;SDS011;1893;52.526;13.360;2022-11-06T08:39:45;13.03;;;8.33;;
3755;SDS011;1893;52.526;13.360;2022-11-06T08:42:10;11.90;;;8.50;;
3755;SDS011;1893;52.526;13.360;2022-11-06T08:44:36;12.07;;;8.63;;
3755;SDS011;1893;52.526;13.360;2022-11-06T08:47:02;12.87;;;7.83;;
3755;SDS011;1893;52.526;13.360;2022-11-06T08:49:27;13.10;;;7.70;;
3755;SDS011;1893;52.526;13.360;2022-11-06T08:51:53;23.03;;;8.80;;
3755;SDS011;1893;52.526;13.360;2022-11-06T08:54:19;10.30;;;6.77;;
3755;SDS011;1893;52.526;13.360;2022-11-06T08:56:44;13.43;;;7.67;;
3755;SDS011;1893;52.526;13.360;2022-11-06T08:59:10;11.17;;;7.27;;
3755;SDS011;1893;52.526;13.360;2022-11-06T09:01:36;12.27;;;7.77;;
3755;SDS011;1893;52.526;13.360;2022-11-06T09:04:01;7.87;;;6.27;;
3755;SDS011;1893;52.526;13.360;2022-11-06T09:06:27;10.63;;;7.50;;
3755;SDS011;1893;52.526;13.360;2022-11-06T09:08:53;8.80;;;6.90;;
3755;SDS011;1893;52.526;13.360;2022-11-06T09:11:19;9.67;;;6.93;;
3755;SDS011;1893;52.526;13.360;2022-11-06T09:13:45;10.10;;;6.10;;
3755;SDS011;1893;52.526;13.360;2022-11-06T09:16:10;12.50;;;6.90;;
3755;SDS011;1893;52.526;13.360;2022-11-06T09:18:36;8.27;;;6.00;;
3755;SDS011;1893;52.526;13.360;2022-11-06T09:21:02;12.57;;;6.63;;
3755;SDS011;1893;52.526;13.360;2022-11-06T09:23:27;10.10;;;6.83;;
3755;SDS011;1893;52.526;13.360;2022-11-06T09:25:53;10.60;;;6.67;;
3755;SDS011;1893;52.526;13.360;2022-11-06T09:28:21;8.13;;;6.20;;
3755;SDS011;1893;52.526;13.360;2022-11-06T09:30:47;8.20;;;6.20;;
3755;SDS011;1893;52.526;13.360;2022-11-06T09:33:12;7.97;;;6.47;;
3755;SDS011;1893;52.526;13.360;2022-11-06T09:35:38;7.90;;;5.90;;
3755;SDS011;1893;52.526;13.360;2022-11-06T09:38:05;7.60;;;5.63;;
3755;SDS011;1893;52.526;13.360;2022-11-06T09:40:36;10.10;;;6.20;;
3755;SDS011;1893;52.526;13.360;2022-11-06T09:46:26;8.13;;;6.83;;
3755;SDS011;1893;52.526;13.360;2022-11-06T09:49:00;7.10;;;5.53;;
3755;SDS011;1893;52.526;13.360;2022-11-06T09:51:51;6.43;;;5.83;;
3755;SDS011;1893;52.526;13.360;2022-11-06T09:59:43;6.10;;;5.50;;
3755;SDS011;1893;52.526;13.360;2022-11-06T10:02:31;8.57;;;5.70;;
3755;SDS011;1893;52.526;13.360;2022-11-06T10:05:17;9.40;;;5.30;;
3755;SDS011;1893;52.526;13.360;2022-11-06T10:07:45;7.50;;;6.20;;
3755;SDS011;1893;52.526;13.360;2022-11-06T10:10:15;7.93;;;5.40;;
3755;SDS011;1893;52.526;13.360;2022-11-06T10:15:53;6.53;;;5.10;;
3755;SDS011;1893;52.526;13.360;2022-11-06T10:18:35;9.20;;;6.00;;
3755;SDS011;1893;52.526;13.360;2022-11-06T10:21:17;5.40;;;4.60;;
3755;SDS011;1893;52.526;13.360;2022-11-06T10:23:57;5.40;;;4.90;;
3755;SDS011;1893;52.526;13.360;2022-11-06T10:26:34;8.33;;;5.50;;
3755;SDS011;1893;52.526;13.360;2022-11-06T10:35:12;6.53;;;4.50;;
3755;SDS011;1893;52.526;13.360;2022-11-06T10:37:45;6.47;;;5.00;;
3755;SDS011;1893;52.526;13.360;2022-11-06T10:40:34;7.10;;;5.07;;
3755;SDS011;1893;52.526;13.360;2022-11-06T10:43:23;6.80;;;4.93;;
3755;SDS011;1893;52.526;13.360;2022-11-06T10:46:01;6.37;;;4.87;;
3755;SDS011;1893;52.526;13.360;2022-11-06T10:48:29;8.80;;;7.23;;
3755;SDS011;1893;52.526;13.360;2022-11-06T10:56:58;5.73;;;4.20;;
3755;SDS011;1893;52.526;13.360;2022-11-06T10:59:46;5.80;;;4.83;;
3755;SDS011;1893;52.526;13.360;2022-11-06T11:02:19;6.50;;;4.60;;
3755;SDS011;1893;52.526;13.360;2022-11-06T11:04:48;7.93;;;5.20;;
3755;SDS011;1893;52.526;13.360;2022-11-06T11:07:14;7.50;;;4.77;;
3755;SDS011;1893;52.526;13.360;2022-11-06T11:09:40;5.23;;;4.40;;
3755;SDS011;1893;52.526;13.360;2022-11-06T11:12:48;5.27;;;4.77;;
3755;SDS011;1893;52.526;13.360;2022-11-06T11:15:04;5.50;;;5.00;;
3755;SDS011;1893;52.526;13.360;2022-11-06T11:17:36;7.80;;;4.80;;
3755;SDS011;1893;52.526;13.360;2022-11-06T11:20:02;6.20;;;4.50;;
3755;SDS011;1893;52.526;13.360;2022-11-06T11:22:28;6.23;;;4.70;;
3755;SDS011;1893;52.526;13.360;2022-11-06T11:24:57;6.97;;;4.60;;
3755;SDS011;1893;52.526;13.360;2022-11-06T11:27:31;6.23;;;4.60;;
3755;SDS011;1893;52.526;13.360;2022-11-06T11:30:02;5.37;;;4.43;;
3755;SDS011;1893;52.526;13.360;2022-11-06T11:32:29;6.13;;;4.57;;
3755;SDS011;1893;52.526;13.360;2022-11-06T11:34:55;5.93;;;4.80;;
3755;SDS011;1893;52.526;13.360;2022-11-06T11:37:23;5.03;;;4.60;;
3755;SDS011;1893;52.526;13.360;2022-11-06T11:40:17;5.17;;;4.40;;
3755;SDS011;1893;52.526;13.360;2022-11-06T11:42:42;5.10;;;3.93;;
3755;SDS011;1893;52.526;13.360;2022-11-06T11:47:34;7.70;;;4.07;;
3755;SDS011;1893;52.526;13.360;2022-11-06T11:52:47;6.77;;;4.17;;
3755;SDS011;1893;52.526;13.360;2022-11-06T11:55:15;6.93;;;4.23;;
3755;SDS011;1893;52.526;13.360;2022-11-06T11:57:43;6.53;;;4.07;;
3755;SDS011;1893;52.526;13.360;2022-11-06T12:00:14;5.40;;;3.70;;
3755;SDS011;1893;52.526;13.360;2022-11-06T12:02:46;5.70;;;4.60;;
3755;SDS011;1893;52.526;13.360;2022-11-06T12:05:37;3.90;;;3.47;;
3755;SDS011;1893;52.526;13.360;2022-11-06T12:08:02;5.17;;;4.23;;
3755;SDS011;1893;52.526;13.360;2022-11-06T12:10:31;5.10;;;3.90;;
3755;SDS011;1893;52.526;13.360;2022-11-06T12:13:13;3.20;;;2.90;;
3755;SDS011;1893;52.526;13.360;2022-11-06T12:18:22;3.87;;;3.43;;
3755;SDS011;1893;52.526;13.360;2022-11-06T12:21:07;6.73;;;3.77;;
3755;SDS011;1893;52.526;13.360;2022-11-06T12:23:40;5.07;;;3.50;;
3755;SDS011;1893;52.526;13.360;2022-11-06T12:26:10;3.90;;;3.60;;
3755;SDS011;1893;52.526;13.360;2022-11-06T12:28:46;4.37;;;3.20;;
3755;SDS011;1893;52.526;13.360;2022-11-06T12:31:19;6.63;;;3.80;;
3755;SDS011;1893;52.526;13.360;2022-11-06T12:34:35;4.60;;;3.30;;
3755;SDS011;1893;52.526;13.360;2022-11-06T12:37:34;4.37;;;3.40;;
3755;SDS011;1893;52.526;13.360;2022-11-06T12:40:17;4.07;;;2.73;;
3755;SDS011;1893;52.526;13.360;2022-11-06T12:42:58;5.63;;;2.90;;
3755;SDS011;1893;52.526;13.360;2022-11-06T12:45:28;3.50;;;2.63;;
3755;SDS011;1893;52.526;13.360;2022-11-06T12:51:38;10.33;;;3.67;;
3755;SDS011;1893;52.526;13.360;2022-11-06T12:57:02;7.20;;;3.40;;
3755;SDS011;1893;52.526;13.360;2022-11-06T12:59:37;3.73;;;2.87;;
3755;SDS011;1893;52.526;13.360;2022-11-06T13:02:13;7.20;;;3.03;;
3755;SDS011;1893;52.526;13.360;2022-11-06T13:05:00;5.17;;;2.80;;
3755;SDS011;1893;52.526;13.360;2022-11-06T13:10:19;4.23;;;3.83;;
3755;SDS011;1893;52.526;13.360;2022-11-06T13:12:54;3.60;;;2.73;;
3755;SDS011;1893;52.526;13.360;2022-11-06T13:15:38;6.13;;;3.57;;
3755;SDS011;1893;52.526;13.360;2022-11-06T13:19:03;4.20;;;2.87;;
3755;SDS011;1893;52.526;13.360;2022-11-06T13:21:31;4.73;;;3.00;;
3755;SDS011;1893;52.526;13.360;2022-11-06T13:24:06;4.53;;;2.93;;
3755;SDS011;1893;52.526;13.360;2022-11-06T13:26:48;4.30;;;3.30;;
3755;SDS011;1893;52.526;13.360;2022-11-06T13:29:40;4.47;;;2.97;;
3755;SDS011;1893;52.526;13.360;2022-11-06T13:32:10;7.17;;;3.87;;
3755;SDS011;1893;52.526;13.360;2022-11-06T13:34:40;5.63;;;2.87;;
3755;SDS011;1893;52.526;13.360;2022-11-06T13:37:12;3.97;;;2.53;;
3755;SDS011;1893;52.526;13.360;2022-11-06T13:39:45;4.00;;;2.93;;
3755;SDS011;1893;52.526;13.360;2022-11-06T13:42:20;2.83;;;2.60;;
3755;SDS011;1893;52.526;13.360;2022-11-06T13:44:50;3.20;;;2.93;;
3755;SDS011;1893;52.526;13.360;2022-11-06T13:47:33;5.23;;;4.00;;
3755;SDS011;1893;52.526;13.360;2022-11-06T13:52:56;5.17;;;3.50;;
3755;SDS011;1893;52.526;13.360;2022-11-06T14:01:24;4.37;;;2.80;;
3755;SDS011;1893;52.526;13.360;2022-11-06T14:06:38;4.40;;;3.00;;
3755;SDS011;1893;52.526;13.360;2022-11-06T14:09:07;5.13;;;2.83;;
3755;SDS011;1893;52.526;13.360;2022-11-06T14:11:38;4.33;;;3.27;;
3755;SDS011;1893;52.526;13.360;2022-11-06T14:14:10;4.33;;;3.70;;
3755;SDS011;1893;52.526;13.360;2022-11-06T14:16:49;3.60;;;3.20;;
3755;SDS011;1893;52.526;13.360;2022-11-06T14:19:36;3.63;;;3.33;;
3755;SDS011;1893;52.526;13.360;2022-11-06T14:24:40;4.13;;;2.60;;
3755;SDS011;1893;52.526;13.360;2022-11-06T14:27:08;4.73;;;3.13;;
3755;SDS011;1893;52.526;13.360;2022-11-06T14:34:54;8.43;;;2.97;;
3755;SDS011;1893;52.526;13.360;2022-11-06T14:44:49;5.10;;;2.93;;
3755;SDS011;1893;52.526;13.360;2022-11-06T14:50:05;5.60;;;3.47;;
3755;SDS011;1893;52.526;13.360;2022-11-06T14:52:47;3.83;;;2.90;;
3755;SDS011;1893;52.526;13.360;2022-11-06T14:55:30;4.03;;;3.67;;
3755;SDS011;1893;52.526;13.360;2022-11-06T15:01:29;4.93;;;3.37;;
3755;SDS011;1893;52.526;13.360;2022-11-06T15:03:53;3.00;;;2.37;;
3755;SDS011;1893;52.526;13.360;2022-11-06T15:09:02;10.53;;;3.50;;
3755;SDS011;1893;52.526;13.360;2022-11-06T15:16:39;4.10;;;2.73;;
3755;SDS011;1893;52.526;13.360;2022-11-06T15:22:07;3.33;;;3.03;;
3755;SDS011;1893;52.526;13.360;2022-11-06T15:25:19;6.90;;;3.43;;
3755;SDS011;1893;52.526;13.360;2022-11-06T15:27:50;3.70;;;2.20;;
3755;SDS011;1893;52.526;13.360;2022-11-06T15:30:28;3.07;;;2.77;;
3755;SDS011;1893;52.526;13.360;2022-11-06T15:33:01;6.03;;;2.77;;
3755;SDS011;1893;52.526;13.360;2022-11-06T15:35:34;3.77;;;2.53;;
3755;SDS011;1893;52.526;13.360;2022-11-06T15:38:11;4.97;;;3.23;;
3755;SDS011;1893;52.526;13.360;2022-11-06T15:40:40;6.50;;;3.17;;
3755;SDS011;1893;52.526;13.360;2022-11-06T15:45:41;3.83;;;2.93;;
3755;SDS011;1893;52.526;13.360;2022-11-06T15:50:59;3.67;;;2.37;;
3755;SDS011;1893;52.526;13.360;2022-11-06T15:53:26;4.80;;;2.30;;
3755;SDS011;1893;52.526;13.360;2022-11-06T15:56:05;3.47;;;3.17;;
3755;SDS011;1893;52.526;13.360;2022-11-06T15:58:33;3.23;;;2.83;;
3755;SDS011;1893;52.526;13.360;2022-11-06T16:01:01;6.50;;;3.40;;
3755;SDS011;1893;52.526;13.360;2022-11-06T16:03:29;9.53;;;3.80;;
3755;SDS011;1893;52.526;13.360;2022-11-06T16:05:59;6.00;;;3.87;;
3755;SDS011;1893;52.526;13.360;2022-11-06T16:08:27;5.77;;;4.00;;
3755;SDS011;1893;52.526;13.360;2022-11-06T16:10:54;5.27;;;3.30;;
3755;SDS011;1893;52.526;13.360;2022-11-06T16:13:21;5.23;;;3.57;;
3755;SDS011;1893;52.526;13.360;2022-11-06T16:15:55;6.77;;;3.80;;
3755;SDS011;1893;52.526;13.360;2022-11-06T16:18:28;10.63;;;3.63;;
3755;SDS011;1893;52.526;13.360;2022-11-06T16:21:10;7.60;;;4.70;;
3755;SDS011;1893;52.526;13.360;2022-11-06T16:26:13;5.93;;;3.77;;
3755;SDS011;1893;52.526;13.360;2022-11-06T16:28:43;7.73;;;3.83;;
3755;SDS011;1893;52.526;13.360;2022-11-06T16:31:14;5.10;;;4.30;;
3755;SDS011;1893;52.526;13.360;2022-11-06T16:33:59;9.00;;;4.47;;
3755;SDS011;1893;52.526;13.360;2022-11-06T16:36:26;4.13;;;2.83;;
3755;SDS011;1893;52.526;13.360;2022-11-06T16:38:53;3.93;;;3.63;;
3755;SDS011;1893;52.526;13.360;2022-11-06T16:44:22;3.93;;;3.63;;
3755;SDS011;1893;52.526;13.360;2022-11-06T16:49:39;6.30;;;4.07;;
3755;SDS011;1893;52.526;13.360;2022-11-06T16:55:02;5.57;;;3.87;;
3755;SDS011;1893;52.526;13.360;2022-11-06T16:57:56;6.73;;;4.07;;
3755;SDS011;1893;52.526;13.360;2022-11-06T17:00:25;4.20;;;3.80;;
3755;SDS011;1893;52.526;13.360;2022-11-06T17:02:54;4.23;;;3.67;;
3755;SDS011;1893;52.526;13.360;2022-11-06T17:05:24;4.90;;;3.13;;
3755;SDS011;1893;52.526;13.360;2022-11-06T17:10:50;7.87;;;3.80;;
3755;SDS011;1893;52.526;13.360;2022-11-06T17:13:20;3.57;;;3.27;;
3755;SDS011;1893;52.526;13.360;2022-11-06T17:15:56;6.63;;;4.57;;
3755;SDS011;1893;52.526;13.360;2022-11-06T17:18:25;9.53;;;4.83;;
3755;SDS011;1893;52.526;13.360;2022-11-06T17:20:53;6.37;;;4.57;;
3755;SDS011;1893;52.526;13.360;2022-11-06T17:23:24;7.97;;;3.57;;
3755;SDS011;1893;52.526;13.360;2022-11-06T17:26:01;8.40;;;3.60;;